sensor_id;sensor_type;location;lat;lon;timestamp;temperature;humidity
29241;DHT22;16268;49.880;8.648;2023-03-29T00:01:07;8.20;99.90
29241;DHT22;16268;49.880;8.648;2023-03-29T00:03:34;8.20;99.90
29241;DHT22;16268;49.880;8.648;2023-03-29T00:06:00;8.10;99.90
29241;DHT22;16268;49.880;8.648;2023-03-29T00:08:30;8.20;99.90
29241;DHT22;16268;49.880;8.648;2023-03-29T00:10:57;8.20;99.90
29241;DHT22;16268;49.880;8.648;2023-03-29T00:13:24;8.20;99.90
29241;DHT22;16268;49.880;8.648;2023-03-29T00:15:51;8.20;99.90
29241;DHT22;16268;49.880;8.648;2023-03-29T00:18:16;8.10;99.90
29241;DHT22;16268;49.880;8.648;2023-03-29T00:20:42;7.80;99.90
29241;DHT22;16268;49.880;8.648;2023-03-29T00:23:07;7.70;99.90
29241;DHT22;16268;49.880;8.648;2023-03-29T00:25:33;7.70;99.90
29241;DHT22;16268;49.880;8.648;2023-03-29T00:27:58;7.60;99.90
29241;DHT22;16268;49.880;8.648;2023-03-29T00:30:24;7.60;99.90
29241;DHT22;16268;49.880;8.648;2023-03-29T00:32:50;7.70;99.90
29241;DHT22;16268;49.880;8.648;2023-03-29T00:35:16;7.60;99.90
29241;DHT22;16268;49.880;8.648;2023-03-29T00:37:41;7.60;99.90
29241;DHT22;16268;49.880;8.648;2023-03-29T00:40:09;7.60;99.90
29241;DHT22;16268;49.880;8.648;2023-03-29T00:42:36;7.60;99.90
29241;DHT22;16268;49.880;8.648;2023-03-29T00:47:43;7.60;99.90
29241;DHT22;16268;49.880;8.648;2023-03-29T00:52:43;7.70;99.90
29241;DHT22;16268;49.880;8.648;2023-03-29T00:55:15;7.80;99.90
29241;DHT22;16268;49.880;8.648;2023-03-29T00:57:41;7.80;99.90
29241;DHT22;16268;49.880;8.648;2023-03-29T01:00:12;7.80;99.90
29241;DHT22;16268;49.880;8.648;2023-03-29T01:02:40;7.90;99.90
29241;DHT22;16268;49.880;8.648;2023-03-29T01:05:14;7.80;99.90
29241;DHT22;16268;49.880;8.648;2023-03-29T01:07:58;7.80;99.90
29241;DHT22;16268;49.880;8.648;2023-03-29T01:10:41;7.70;99.90
29241;DHT22;16268;49.880;8.648;2023-03-29T01:13:11;7.70;99.90
29241;DHT22;16268;49.880;8.648;2023-03-29T01:15:39;7.70;99.90
29241;DHT22;16268;49.880;8.648;2023-03-29T01:18:06;7.70;99.90
29241;DHT22;16268;49.880;8.648;2023-03-29T01:20:49;7.60;99.90
29241;DHT22;16268;49.880;8.648;2023-03-29T01:32:20;7.60;99.90
29241;DHT22;16268;49.880;8.648;2023-03-29T01:34:49;7.60;99.90
29241;DHT22;16268;49.880;8.648;2023-03-29T01:37:30;7.50;99.90
29241;DHT22;16268;49.880;8.648;2023-03-29T01:39:59;7.50;99.90
29241;DHT22;16268;49.880;8.648;2023-03-29T01:42:35;7.60;99.90
29241;DHT22;16268;49.880;8.648;2023-03-29T01:48:00;7.40;99.90
29241;DHT22;16268;49.880;8.648;2023-03-29T01:50:49;7.50;99.90
29241;DHT22;16268;49.880;8.648;2023-03-29T01:56:23;7.60;99.90
29241;DHT22;16268;49.880;8.648;2023-03-29T01:58:57;7.60;99.90
29241;DHT22;16268;49.880;8.648;2023-03-29T02:01:27;7.60;99.90
29241;DHT22;16268;49.880;8.648;2023-03-29T02:04:01;7.50;99.90
29241;DHT22;16268;49.880;8.648;2023-03-29T02:06:30;7.50;99.90
29241;DHT22;16268;49.880;8.648;2023-03-29T02:08:57;7.50;99.90
29241;DHT22;16268;49.880;8.648;2023-03-29T02:11:24;7.60;99.90
29241;DHT22;16268;49.880;8.648;2023-03-29T02:13:51;7.60;99.90
29241;DHT22;16268;49.880;8.648;2023-03-29T02:16:18;7.60;99.90
29241;DHT22;16268;49.880;8.648;2023-03-29T02:18:45;7.60;99.90
29241;DHT22;16268;49.880;8.648;2023-03-29T02:21:29;7.50;99.90
29241;DHT22;16268;49.880;8.648;2023-03-29T02:23:58;7.40;99.90
29241;DHT22;16268;49.880;8.648;2023-03-29T02:26:25;7.30;99.90
29241;DHT22;16268;49.880;8.648;2023-03-29T02:28:51;7.30;99.90
29241;DHT22;16268;49.880;8.648;2023-03-29T02:31:45;7.30;99.90
29241;DHT22;16268;49.880;8.648;2023-03-29T02:37:05;7.30;99.90
29241;DHT22;16268;49.880;8.648;2023-03-29T02:39:33;7.30;99.90
29241;DHT22;16268;49.880;8.648;2023-03-29T02:42:00;7.40;99.90
29241;DHT22;16268;49.880;8.648;2023-03-29T02:44:29;7.40;99.90
29241;DHT22;16268;49.880;8.648;2023-03-29T02:46:59;7.40;99.90
29241;DHT22;16268;49.880;8.648;2023-03-29T02:49:26;7.40;99.90
29241;DHT22;16268;49.880;8.648;2023-03-29T02:51:54;7.40;99.90
29241;DHT22;16268;49.880;8.648;2023-03-29T02:54:23;7.30;99.90
29241;DHT22;16268;49.880;8.648;2023-03-29T02:57:02;7.30;99.90
29241;DHT22;16268;49.880;8.648;2023-03-29T02:59:30;7.20;99.90
29241;DHT22;16268;49.880;8.648;2023-03-29T03:01:58;7.10;99.90
29241;DHT22;16268;49.880;8.648;2023-03-29T03:04:24;7.00;99.90
29241;DHT22;16268;49.880;8.648;2023-03-29T03:06:50;7.00;99.90
29241;DHT22;16268;49.880;8.648;2023-03-29T03:09:15;7.00;99.90
29241;DHT22;16268;49.880;8.648;2023-03-29T03:11:42;7.00;99.90
29241;DHT22;16268;49.880;8.648;2023-03-29T03:14:07;7.00;99.90
29241;DHT22;16268;49.880;8.648;2023-03-29T03:16:33;6.90;99.90
29241;DHT22;16268;49.880;8.648;2023-03-29T03:18:59;7.00;99.90
29241;DHT22;16268;49.880;8.648;2023-03-29T03:21:25;7.00;99.90
29241;DHT22;16268;49.880;8.648;2023-03-29T03:23:52;7.00;99.90
29241;DHT22;16268;49.880;8.648;2023-03-29T03:26:19;7.10;99.90
29241;DHT22;16268;49.880;8.648;2023-03-29T03:28:44;7.20;99.90
29241;DHT22;16268;49.880;8.648;2023-03-29T03:31:11;7.30;99.90
29241;DHT22;16268;49.880;8.648;2023-03-29T03:33:38;7.50;99.90
29241;DHT22;16268;49.880;8.648;2023-03-29T03:36:06;7.60;99.90
29241;DHT22;16268;49.880;8.648;2023-03-29T03:38:32;7.60;99.90
29241;DHT22;16268;49.880;8.648;2023-03-29T03:40:59;7.50;99.90
29241;DHT22;16268;49.880;8.648;2023-03-29T03:43:25;7.50;99.90
29241;DHT22;16268;49.880;8.648;2023-03-29T03:45:51;7.40;99.90
29241;DHT22;16268;49.880;8.648;2023-03-29T03:48:17;7.30;99.90
29241;DHT22;16268;49.880;8.648;2023-03-29T03:50:53;7.40;99.90
29241;DHT22;16268;49.880;8.648;2023-03-29T03:53:20;7.40;99.90
29241;DHT22;16268;49.880;8.648;2023-03-29T03:55:47;7.40;99.90
29241;DHT22;16268;49.880;8.648;2023-03-29T03:58:13;7.60;99.90
29241;DHT22;16268;49.880;8.648;2023-03-29T04:00:39;7.60;99.90
29241;DHT22;16268;49.880;8.648;2023-03-29T04:03:04;7.60;99.90
29241;DHT22;16268;49.880;8.648;2023-03-29T04:05:30;7.60;99.90
29241;DHT22;16268;49.880;8.648;2023-03-29T04:07:55;7.50;99.90
29241;DHT22;16268;49.880;8.648;2023-03-29T04:10:21;7.50;99.90
29241;DHT22;16268;49.880;8.648;2023-03-29T04:12:47;7.40;99.90
29241;DHT22;16268;49.880;8.648;2023-03-29T04:15:12;7.30;99.90
29241;DHT22;16268;49.880;8.648;2023-03-29T04:17:38;7.20;99.90
29241;DHT22;16268;49.880;8.648;2023-03-29T04:20:04;7.10;99.90
29241;DHT22;16268;49.880;8.648;2023-03-29T04:22:37;7.10;99.90
29241;DHT22;16268;49.880;8.648;2023-03-29T04:25:04;7.10;99.90
29241;DHT22;16268;49.880;8.648;2023-03-29T04:27:30;7.10;99.90
29241;DHT22;16268;49.880;8.648;2023-03-29T04:29:56;7.10;99.90
29241;DHT22;16268;49.880;8.648;2023-03-29T04:32:21;7.10;99.90
29241;DHT22;16268;49.880;8.648;2023-03-29T04:34:47;7.10;99.90
29241;DHT22;16268;49.880;8.648;2023-03-29T04:37:13;7.10;99.90
29241;DHT22;16268;49.880;8.648;2023-03-29T04:39:38;7.00;99.90
29241;DHT22;16268;49.880;8.648;2023-03-29T04:42:04;7.00;99.90
29241;DHT22;16268;49.880;8.648;2023-03-29T04:44:30;7.10;99.90
29241;DHT22;16268;49.880;8.648;2023-03-29T04:46:59;7.20;99.90
29241;DHT22;16268;49.880;8.648;2023-03-29T04:49:25;7.20;99.90
29241;DHT22;16268;49.880;8.648;2023-03-29T04:51:51;7.10;99.90
29241;DHT22;16268;49.880;8.648;2023-03-29T04:54:17;7.10;99.90
29241;DHT22;16268;49.880;8.648;2023-03-29T04:56:43;7.00;99.90
29241;DHT22;16268;49.880;8.648;2023-03-29T04:59:08;7.00;99.90
29241;DHT22;16268;49.880;8.648;2023-03-29T05:01:34;7.20;99.90
29241;DHT22;16268;49.880;8.648;2023-03-29T05:03:59;7.10;99.90
29241;DHT22;16268;49.880;8.648;2023-03-29T05:06:25;7.00;99.90
29241;DHT22;16268;49.880;8.648;2023-03-29T05:08:51;7.00;99.90
29241;DHT22;16268;49.880;8.648;2023-03-29T05:11:16;7.10;99.90
29241;DHT22;16268;49.880;8.648;2023-03-29T05:13:43;7.10;99.90
29241;DHT22;16268;49.880;8.648;2023-03-29T05:16:09;7.20;99.90
29241;DHT22;16268;49.880;8.648;2023-03-29T05:18:35;7.20;99.90
29241;DHT22;16268;49.880;8.648;2023-03-29T05:21:01;7.30;99.90
29241;DHT22;16268;49.880;8.648;2023-03-29T05:23:27;7.30;99.90
29241;DHT22;16268;49.880;8.648;2023-03-29T05:25:53;7.40;99.90
29241;DHT22;16268;49.880;8.648;2023-03-29T05:28:18;7.40;99.90
29241;DHT22;16268;49.880;8.648;2023-03-29T05:30:45;7.40;99.90
29241;DHT22;16268;49.880;8.648;2023-03-29T05:33:10;7.40;99.90
29241;DHT22;16268;49.880;8.648;2023-03-29T05:35:36;7.60;99.90
29241;DHT22;16268;49.880;8.648;2023-03-29T05:38:03;7.70;99.90
29241;DHT22;16268;49.880;8.648;2023-03-29T05:40:29;7.70;99.90
29241;DHT22;16268;49.880;8.648;2023-03-29T05:42:56;7.70;99.90
29241;DHT22;16268;49.880;8.648;2023-03-29T05:45:22;7.80;99.90
29241;DHT22;16268;49.880;8.648;2023-03-29T05:47:49;7.90;99.90
29241;DHT22;16268;49.880;8.648;2023-03-29T05:50:14;8.00;99.90
29241;DHT22;16268;49.880;8.648;2023-03-29T05:52:40;8.10;99.90
29241;DHT22;16268;49.880;8.648;2023-03-29T05:55:06;8.10;99.90
29241;DHT22;16268;49.880;8.648;2023-03-29T05:57:34;8.00;99.90
29241;DHT22;16268;49.880;8.648;2023-03-29T06:00:05;8.10;99.90
29241;DHT22;16268;49.880;8.648;2023-03-29T06:02:44;8.10;99.90
29241;DHT22;16268;49.880;8.648;2023-03-29T06:05:10;8.10;99.90
29241;DHT22;16268;49.880;8.648;2023-03-29T06:07:35;8.20;99.90
29241;DHT22;16268;49.880;8.648;2023-03-29T06:10:03;8.20;99.90
29241;DHT22;16268;49.880;8.648;2023-03-29T06:12:29;8.20;99.90
29241;DHT22;16268;49.880;8.648;2023-03-29T06:14:55;8.30;99.90
29241;DHT22;16268;49.880;8.648;2023-03-29T06:17:22;8.40;99.90
29241;DHT22;16268;49.880;8.648;2023-03-29T06:19:48;8.40;99.90
29241;DHT22;16268;49.880;8.648;2023-03-29T06:22:14;8.40;99.90
29241;DHT22;16268;49.880;8.648;2023-03-29T06:24:39;8.40;99.90
29241;DHT22;16268;49.880;8.648;2023-03-29T06:27:05;8.50;99.90
29241;DHT22;16268;49.880;8.648;2023-03-29T06:29:31;8.60;99.90
29241;DHT22;16268;49.880;8.648;2023-03-29T06:31:57;8.60;99.90
29241;DHT22;16268;49.880;8.648;2023-03-29T06:34:22;8.70;99.90
29241;DHT22;16268;49.880;8.648;2023-03-29T06:36:48;8.80;99.90
29241;DHT22;16268;49.880;8.648;2023-03-29T06:39:15;8.80;99.90
29241;DHT22;16268;49.880;8.648;2023-03-29T06:41:40;8.90;99.90
29241;DHT22;16268;49.880;8.648;2023-03-29T06:44:06;8.90;99.90
29241;DHT22;16268;49.880;8.648;2023-03-29T06:46:33;9.00;99.90
29241;DHT22;16268;49.880;8.648;2023-03-29T06:48:58;9.00;99.90
29241;DHT22;16268;49.880;8.648;2023-03-29T06:51:24;9.00;99.90
29241;DHT22;16268;49.880;8.648;2023-03-29T06:53:49;9.10;99.90
29241;DHT22;16268;49.880;8.648;2023-03-29T06:56:15;9.10;99.90
29241;DHT22;16268;49.880;8.648;2023-03-29T06:58:41;9.10;99.90
29241;DHT22;16268;49.880;8.648;2023-03-29T07:01:09;9.10;99.90
29241;DHT22;16268;49.880;8.648;2023-03-29T07:03:35;9.10;99.90
29241;DHT22;16268;49.880;8.648;2023-03-29T07:06:03;9.10;99.90
29241;DHT22;16268;49.880;8.648;2023-03-29T07:08:35;9.10;99.90
29241;DHT22;16268;49.880;8.648;2023-03-29T07:11:05;9.10;99.90
29241;DHT22;16268;49.880;8.648;2023-03-29T07:13:31;9.20;99.90
29241;DHT22;16268;49.880;8.648;2023-03-29T07:15:57;9.30;99.90
29241;DHT22;16268;49.880;8.648;2023-03-29T07:18:22;9.40;99.90
29241;DHT22;16268;49.880;8.648;2023-03-29T07:20:48;9.50;99.90
29241;DHT22;16268;49.880;8.648;2023-03-29T07:23:14;9.60;99.90
29241;DHT22;16268;49.880;8.648;2023-03-29T07:25:39;9.60;99.90
29241;DHT22;16268;49.880;8.648;2023-03-29T07:28:05;9.70;99.90
29241;DHT22;16268;49.880;8.648;2023-03-29T07:30:31;9.70;99.90
29241;DHT22;16268;49.880;8.648;2023-03-29T07:32:57;9.80;99.90
29241;DHT22;16268;49.880;8.648;2023-03-29T07:42:53;10.10;99.90
29241;DHT22;16268;49.880;8.648;2023-03-29T07:45:24;10.20;99.90
29241;DHT22;16268;49.880;8.648;2023-03-29T07:47:54;10.50;99.90
29241;DHT22;16268;49.880;8.648;2023-03-29T07:50:20;10.70;99.90
29241;DHT22;16268;49.880;8.648;2023-03-29T07:52:46;10.80;99.90
29241;DHT22;16268;49.880;8.648;2023-03-29T07:55:12;10.90;99.90
29241;DHT22;16268;49.880;8.648;2023-03-29T07:57:39;11.10;99.90
29241;DHT22;16268;49.880;8.648;2023-03-29T08:00:06;11.40;99.90
29241;DHT22;16268;49.880;8.648;2023-03-29T08:02:46;11.50;99.90
29241;DHT22;16268;49.880;8.648;2023-03-29T08:05:13;11.70;99.90
29241;DHT22;16268;49.880;8.648;2023-03-29T08:07:51;11.70;99.90
29241;DHT22;16268;49.880;8.648;2023-03-29T08:10:18;12.00;99.90
29241;DHT22;16268;49.880;8.648;2023-03-29T08:12:46;12.10;99.90
29241;DHT22;16268;49.880;8.648;2023-03-29T08:15:13;12.20;99.90
29241;DHT22;16268;49.880;8.648;2023-03-29T08:17:39;12.10;99.90
29241;DHT22;16268;49.880;8.648;2023-03-29T08:20:06;12.10;99.90
29241;DHT22;16268;49.880;8.648;2023-03-29T08:22:33;12.20;99.90
29241;DHT22;16268;49.880;8.648;2023-03-29T08:24:59;12.00;99.90
29241;DHT22;16268;49.880;8.648;2023-03-29T08:27:25;12.10;99.90
29241;DHT22;16268;49.880;8.648;2023-03-29T08:29:50;12.20;99.90
29241;DHT22;16268;49.880;8.648;2023-03-29T08:32:16;12.50;99.90
29241;DHT22;16268;49.880;8.648;2023-03-29T08:34:42;12.50;99.90
29241;DHT22;16268;49.880;8.648;2023-03-29T08:37:08;12.70;99.90
29241;DHT22;16268;49.880;8.648;2023-03-29T08:39:34;12.80;99.90
29241;DHT22;16268;49.880;8.648;2023-03-29T08:45:16;13.20;99.90
29241;DHT22;16268;49.880;8.648;2023-03-29T08:48:19;13.50;99.90
29241;DHT22;16268;49.880;8.648;2023-03-29T08:50:58;13.40;99.90
29241;DHT22;16268;49.880;8.648;2023-03-29T08:53:30;13.50;99.90
29241;DHT22;16268;49.880;8.648;2023-03-29T08:55:59;13.90;99.90
29241;DHT22;16268;49.880;8.648;2023-03-29T08:58:28;14.20;99.90
29241;DHT22;16268;49.880;8.648;2023-03-29T09:00:58;14.20;99.90
29241;DHT22;16268;49.880;8.648;2023-03-29T09:03:25;14.10;99.90
29241;DHT22;16268;49.880;8.648;2023-03-29T09:05:58;14.10;99.90
29241;DHT22;16268;49.880;8.648;2023-03-29T09:08:25;14.20;99.90
29241;DHT22;16268;49.880;8.648;2023-03-29T09:19:53;13.70;99.90
29241;DHT22;16268;49.880;8.648;2023-03-29T09:25:17;13.70;99.90
29241;DHT22;16268;49.880;8.648;2023-03-29T09:28:03;13.70;99.90
29241;DHT22;16268;49.880;8.648;2023-03-29T09:30:33;13.70;99.90
29241;DHT22;16268;49.880;8.648;2023-03-29T09:33:27;13.60;99.90
29241;DHT22;16268;49.880;8.648;2023-03-29T09:38:43;13.60;99.90
29241;DHT22;16268;49.880;8.648;2023-03-29T09:43:59;13.40;99.90
29241;DHT22;16268;49.880;8.648;2023-03-29T09:46:38;13.50;99.90
29241;DHT22;16268;49.880;8.648;2023-03-29T09:49:08;13.60;99.90
29241;DHT22;16268;49.880;8.648;2023-03-29T09:51:36;13.60;99.90
29241;DHT22;16268;49.880;8.648;2023-03-29T09:54:03;13.70;99.90
29241;DHT22;16268;49.880;8.648;2023-03-29T09:56:28;13.90;99.90
29241;DHT22;16268;49.880;8.648;2023-03-29T09:58:54;14.10;99.90
29241;DHT22;16268;49.880;8.648;2023-03-29T10:01:20;13.90;99.90
29241;DHT22;16268;49.880;8.648;2023-03-29T10:03:51;13.90;99.90
29241;DHT22;16268;49.880;8.648;2023-03-29T10:06:20;14.00;99.90
29241;DHT22;16268;49.880;8.648;2023-03-29T10:08:50;14.00;99.90
29241;DHT22;16268;49.880;8.648;2023-03-29T10:11:37;13.90;99.90
29241;DHT22;16268;49.880;8.648;2023-03-29T10:16:41;13.90;99.90
29241;DHT22;16268;49.880;8.648;2023-03-29T10:21:53;14.00;99.90
29241;DHT22;16268;49.880;8.648;2023-03-29T10:24:21;14.20;99.90
29241;DHT22;16268;49.880;8.648;2023-03-29T10:26:49;13.90;99.90
29241;DHT22;16268;49.880;8.648;2023-03-29T10:29:20;14.20;99.90
29241;DHT22;16268;49.880;8.648;2023-03-29T10:31:46;14.20;99.90
29241;DHT22;16268;49.880;8.648;2023-03-29T10:34:14;14.20;99.90
29241;DHT22;16268;49.880;8.648;2023-03-29T10:36:48;14.40;99.90
29241;DHT22;16268;49.880;8.648;2023-03-29T10:39:16;14.60;99.90
29241;DHT22;16268;49.880;8.648;2023-03-29T10:41:43;14.70;99.90
29241;DHT22;16268;49.880;8.648;2023-03-29T10:44:30;15.20;99.90
29241;DHT22;16268;49.880;8.648;2023-03-29T10:47:15;15.70;99.90
29241;DHT22;16268;49.880;8.648;2023-03-29T10:49:44;16.10;99.90
29241;DHT22;16268;49.880;8.648;2023-03-29T10:52:14;16.10;99.90
29241;DHT22;16268;49.880;8.648;2023-03-29T10:54:40;16.70;99.90
29241;DHT22;16268;49.880;8.648;2023-03-29T10:57:08;16.90;99.90
29241;DHT22;16268;49.880;8.648;2023-03-29T11:04:55;16.70;99.90
29241;DHT22;16268;49.880;8.648;2023-03-29T11:07:33;16.60;99.90
29241;DHT22;16268;49.880;8.648;2023-03-29T11:18:35;16.90;99.90
29241;DHT22;16268;49.880;8.648;2023-03-29T11:21:34;16.90;99.90
29241;DHT22;16268;49.880;8.648;2023-03-29T11:29:42;16.90;99.90
29241;DHT22;16268;49.880;8.648;2023-03-29T11:32:28;16.90;99.90
29241;DHT22;16268;49.880;8.648;2023-03-29T11:38:38;16.60;99.90
29241;DHT22;16268;49.880;8.648;2023-03-29T11:41:25;16.80;99.90
29241;DHT22;16268;49.880;8.648;2023-03-29T11:44:07;16.70;99.90
29241;DHT22;16268;49.880;8.648;2023-03-29T11:46:44;16.70;99.90
29241;DHT22;16268;49.880;8.648;2023-03-29T11:49:12;16.40;99.90
29241;DHT22;16268;49.880;8.648;2023-03-29T11:54:41;16.20;99.90
29241;DHT22;16268;49.880;8.648;2023-03-29T11:57:25;16.30;99.90
29241;DHT22;16268;49.880;8.648;2023-03-29T12:05:20;16.50;99.90
29241;DHT22;16268;49.880;8.648;2023-03-29T12:07:50;16.60;99.90
29241;DHT22;16268;49.880;8.648;2023-03-29T12:10:19;16.70;99.90
29241;DHT22;16268;49.880;8.648;2023-03-29T12:13:00;16.90;99.90
29241;DHT22;16268;49.880;8.648;2023-03-29T12:15:32;16.90;99.90
29241;DHT22;16268;49.880;8.648;2023-03-29T12:18:28;16.90;99.90
29241;DHT22;16268;49.880;8.648;2023-03-29T12:20:58;16.90;99.90
29241;DHT22;16268;49.880;8.648;2023-03-29T12:23:24;16.90;99.90
29241;DHT22;16268;49.880;8.648;2023-03-29T12:40:17;17.70;99.90
29241;DHT22;16268;49.880;8.648;2023-03-29T12:42:45;17.50;99.90
29241;DHT22;16268;49.880;8.648;2023-03-29T12:45:20;17.50;99.90
29241;DHT22;16268;49.880;8.648;2023-03-29T12:47:48;17.30;99.90
29241;DHT22;16268;49.880;8.648;2023-03-29T12:50:32;17.40;99.90
29241;DHT22;16268;49.880;8.648;2023-03-29T12:53:20;17.40;99.90
29241;DHT22;16268;49.880;8.648;2023-03-29T12:58:49;17.10;99.90
29241;DHT22;16268;49.880;8.648;2023-03-29T13:01:28;17.10;99.90
29241;DHT22;16268;49.880;8.648;2023-03-29T13:04:18;17.10;99.90
29241;DHT22;16268;49.880;8.648;2023-03-29T13:09:22;17.20;99.90
29241;DHT22;16268;49.880;8.648;2023-03-29T13:11:53;17.30;99.90
29241;DHT22;16268;49.880;8.648;2023-03-29T13:14:20;17.50;99.90
29241;DHT22;16268;49.880;8.648;2023-03-29T13:16:48;17.70;99.90
29241;DHT22;16268;49.880;8.648;2023-03-29T13:22:37;17.70;99.90
29241;DHT22;16268;49.880;8.648;2023-03-29T13:25:18;17.70;99.90
29241;DHT22;16268;49.880;8.648;2023-03-29T13:28:09;17.70;99.90
29241;DHT22;16268;49.880;8.648;2023-03-29T13:39:48;17.20;99.90
29241;DHT22;16268;49.880;8.648;2023-03-29T13:44:48;17.40;99.90
29241;DHT22;16268;49.880;8.648;2023-03-29T13:50:04;17.60;99.90
29241;DHT22;16268;49.880;8.648;2023-03-29T13:52:34;17.60;99.90
29241;DHT22;16268;49.880;8.648;2023-03-29T13:55:20;17.60;99.90
29241;DHT22;16268;49.880;8.648;2023-03-29T13:57:59;17.80;99.90
29241;DHT22;16268;49.880;8.648;2023-03-29T14:00:29;17.90;99.90
29241;DHT22;16268;49.880;8.648;2023-03-29T14:03:00;18.00;99.90
29241;DHT22;16268;49.880;8.648;2023-03-29T14:05:32;17.90;99.90
29241;DHT22;16268;49.880;8.648;2023-03-29T14:10:44;18.10;99.90
29241;DHT22;16268;49.880;8.648;2023-03-29T14:13:12;18.00;99.90
29241;DHT22;16268;49.880;8.648;2023-03-29T14:18:18;17.60;99.90
29241;DHT22;16268;49.880;8.648;2023-03-29T14:20:46;17.70;99.90
29241;DHT22;16268;49.880;8.648;2023-03-29T14:23:18;17.90;99.90
29241;DHT22;16268;49.880;8.648;2023-03-29T14:25:45;17.90;99.90
29241;DHT22;16268;49.880;8.648;2023-03-29T14:30:44;17.90;99.90
29241;DHT22;16268;49.880;8.648;2023-03-29T14:33:13;17.90;99.90
29241;DHT22;16268;49.880;8.648;2023-03-29T14:35:38;17.90;99.90
29241;DHT22;16268;49.880;8.648;2023-03-29T14:38:05;17.90;99.90
29241;DHT22;16268;49.880;8.648;2023-03-29T14:40:31;17.90;99.90
29241;DHT22;16268;49.880;8.648;2023-03-29T14:42:59;17.80;99.90
29241;DHT22;16268;49.880;8.648;2023-03-29T14:45:26;17.90;99.90
29241;DHT22;16268;49.880;8.648;2023-03-29T14:47:52;17.90;99.90
29241;DHT22;16268;49.880;8.648;2023-03-29T14:50:23;17.80;99.90
29241;DHT22;16268;49.880;8.648;2023-03-29T14:52:50;17.70;99.90
29241;DHT22;16268;49.880;8.648;2023-03-29T14:55:16;17.70;99.90
29241;DHT22;16268;49.880;8.648;2023-03-29T14:57:48;17.80;99.90
29241;DHT22;16268;49.880;8.648;2023-03-29T15:02:54;17.70;99.90
29241;DHT22;16268;49.880;8.648;2023-03-29T15:05:24;17.70;99.90
29241;DHT22;16268;49.880;8.648;2023-03-29T15:07:50;17.80;99.90
29241;DHT22;16268;49.880;8.648;2023-03-29T15:10:19;17.90;99.90
29241;DHT22;16268;49.880;8.648;2023-03-29T15:12:45;18.00;99.90
29241;DHT22;16268;49.880;8.648;2023-03-29T15:15:12;18.00;99.90
29241;DHT22;16268;49.880;8.648;2023-03-29T15:17:39;18.10;99.90
29241;DHT22;16268;49.880;8.648;2023-03-29T15:25:46;17.80;99.90
29241;DHT22;16268;49.880;8.648;2023-03-29T15:28:32;17.80;99.90
29241;DHT22;16268;49.880;8.648;2023-03-29T15:31:08;17.70;99.90
29241;DHT22;16268;49.880;8.648;2023-03-29T15:33:36;17.60;99.90
29241;DHT22;16268;49.880;8.648;2023-03-29T15:36:04;17.50;99.90
29241;DHT22;16268;49.880;8.648;2023-03-29T15:38:30;17.60;99.90
29241;DHT22;16268;49.880;8.648;2023-03-29T15:40:56;17.70;99.90
29241;DHT22;16268;49.880;8.648;2023-03-29T15:43:22;17.80;99.90
29241;DHT22;16268;49.880;8.648;2023-03-29T15:45:49;17.80;99.90
29241;DHT22;16268;49.880;8.648;2023-03-29T15:48:19;17.70;99.90
29241;DHT22;16268;49.880;8.648;2023-03-29T15:50:46;17.70;99.90
29241;DHT22;16268;49.880;8.648;2023-03-29T15:53:12;17.80;99.90
29241;DHT22;16268;49.880;8.648;2023-03-29T15:55:40;17.70;99.90
29241;DHT22;16268;49.880;8.648;2023-03-29T15:58:10;17.60;99.90
29241;DHT22;16268;49.880;8.648;2023-03-29T16:00:38;17.40;99.90
29241;DHT22;16268;49.880;8.648;2023-03-29T16:03:05;17.40;99.90
29241;DHT22;16268;49.880;8.648;2023-03-29T16:05:31;17.30;99.90
29241;DHT22;16268;49.880;8.648;2023-03-29T16:07:56;17.10;99.90
29241;DHT22;16268;49.880;8.648;2023-03-29T16:10:22;17.10;99.90
29241;DHT22;16268;49.880;8.648;2023-03-29T16:12:47;17.10;99.90
29241;DHT22;16268;49.880;8.648;2023-03-29T16:15:17;17.00;99.90
29241;DHT22;16268;49.880;8.648;2023-03-29T16:17:43;17.00;99.90
29241;DHT22;16268;49.880;8.648;2023-03-29T16:20:09;17.00;99.90
29241;DHT22;16268;49.880;8.648;2023-03-29T16:22:35;17.10;99.90
29241;DHT22;16268;49.880;8.648;2023-03-29T16:25:01;17.00;99.90
29241;DHT22;16268;49.880;8.648;2023-03-29T16:27:29;17.00;99.90
29241;DHT22;16268;49.880;8.648;2023-03-29T16:29:57;16.80;99.90
29241;DHT22;16268;49.880;8.648;2023-03-29T16:32:23;16.90;99.90
29241;DHT22;16268;49.880;8.648;2023-03-29T16:34:48;16.80;99.90
29241;DHT22;16268;49.880;8.648;2023-03-29T16:37:14;16.90;99.90
29241;DHT22;16268;49.880;8.648;2023-03-29T16:39:39;17.00;99.90
29241;DHT22;16268;49.880;8.648;2023-03-29T16:42:05;16.90;99.90
29241;DHT22;16268;49.880;8.648;2023-03-29T16:44:31;16.90;99.90
29241;DHT22;16268;49.880;8.648;2023-03-29T16:46:56;16.80;99.90
29241;DHT22;16268;49.880;8.648;2023-03-29T16:49:22;16.80;99.90
29241;DHT22;16268;49.880;8.648;2023-03-29T16:51:48;16.80;99.90
29241;DHT22;16268;49.880;8.648;2023-03-29T16:54:15;16.80;99.90
29241;DHT22;16268;49.880;8.648;2023-03-29T16:56:43;16.70;99.90
29241;DHT22;16268;49.880;8.648;2023-03-29T16:59:09;16.80;99.90
29241;DHT22;16268;49.880;8.648;2023-03-29T17:01:35;16.60;99.90
29241;DHT22;16268;49.880;8.648;2023-03-29T17:04:01;16.60;99.90
29241;DHT22;16268;49.880;8.648;2023-03-29T17:06:26;16.60;99.90
29241;DHT22;16268;49.880;8.648;2023-03-29T17:08:52;16.50;99.90
29241;DHT22;16268;49.880;8.648;2023-03-29T17:11:18;16.40;99.90
29241;DHT22;16268;49.880;8.648;2023-03-29T17:13:48;16.40;99.90
29241;DHT22;16268;49.880;8.648;2023-03-29T17:16:14;16.40;99.90
29241;DHT22;16268;49.880;8.648;2023-03-29T17:18:40;16.40;99.90
29241;DHT22;16268;49.880;8.648;2023-03-29T17:21:06;16.40;99.90
29241;DHT22;16268;49.880;8.648;2023-03-29T17:23:31;16.30;99.90
29241;DHT22;16268;49.880;8.648;2023-03-29T17:25:57;16.20;99.90
29241;DHT22;16268;49.880;8.648;2023-03-29T17:28:23;16.20;99.90
29241;DHT22;16268;49.880;8.648;2023-03-29T17:30:48;16.10;99.90
29241;DHT22;16268;49.880;8.648;2023-03-29T17:33:14;16.10;99.90
29241;DHT22;16268;49.880;8.648;2023-03-29T17:35:41;16.10;99.90
29241;DHT22;16268;49.880;8.648;2023-03-29T17:38:07;16.00;99.90
29241;DHT22;16268;49.880;8.648;2023-03-29T17:40:33;15.90;99.90
29241;DHT22;16268;49.880;8.648;2023-03-29T17:42:59;15.90;99.90
29241;DHT22;16268;49.880;8.648;2023-03-29T17:45:24;15.90;99.90
29241;DHT22;16268;49.880;8.648;2023-03-29T17:47:50;15.90;99.90
29241;DHT22;16268;49.880;8.648;2023-03-29T17:50:16;15.70;99.90
29241;DHT22;16268;49.880;8.648;2023-03-29T17:52:42;15.70;99.90
29241;DHT22;16268;49.880;8.648;2023-03-29T17:55:09;15.70;99.90
29241;DHT22;16268;49.880;8.648;2023-03-29T17:57:37;15.70;99.90
29241;DHT22;16268;49.880;8.648;2023-03-29T18:00:06;15.60;99.90
29241;DHT22;16268;49.880;8.648;2023-03-29T18:02:32;15.60;99.90
29241;DHT22;16268;49.880;8.648;2023-03-29T18:04:58;15.50;99.90
29241;DHT22;16268;49.880;8.648;2023-03-29T18:07:29;15.50;99.90
29241;DHT22;16268;49.880;8.648;2023-03-29T18:09:55;15.50;99.90